Map

Track Data

SID SEASON NUMBER BASIN SUBBASIN NAME ISO_TIME NATURE LAT LON WMO_WIND WMO_PRES WMO_AGENCY TRACK_TYPE DIST2LAND LANDFALL IFLAG USA_AGENCY USA_ATCF_ID USA_LAT USA_LON USA_RECORD USA_STATUS USA_WIND USA_PRES USA_SSHS USA_R34_NE USA_R34_SE USA_R34_SW USA_R34_NW USA_R50_NE USA_R50_SE USA_R50_SW USA_R50_NW USA_R64_NE USA_R64_SE USA_R64_SW USA_R64_NW USA_POCI USA_ROCI USA_RMW USA_EYE TOKYO_LAT TOKYO_LON TOKYO_GRADE TOKYO_WIND TOKYO_PRES TOKYO_R50_DIR TOKYO_R50_LONG TOKYO_R50_SHORT TOKYO_R30_DIR TOKYO_R30_LONG TOKYO_R30_SHORT TOKYO_LAND CMA_LAT CMA_LON CMA_CAT CMA_WIND CMA_PRES HKO_LAT HKO_LON HKO_CAT HKO_WIND HKO_PRES NEWDELHI_LAT NEWDELHI_LON NEWDELHI_GRADE NEWDELHI_WIND NEWDELHI_PRES NEWDELHI_CI NEWDELHI_DP NEWDELHI_POCI REUNION_LAT REUNION_LON REUNION_TYPE REUNION_WIND REUNION_PRES REUNION_TNUM REUNION_CI REUNION_RMW REUNION_R34_NE REUNION_R34_SE REUNION_R34_SW REUNION_R34_NW REUNION_R50_NE REUNION_R50_SE REUNION_R50_SW REUNION_R50_NW REUNION_R64_NE REUNION_R64_SE REUNION_R64_SW REUNION_R64_NW BOM_LAT BOM_LON BOM_TYPE BOM_WIND BOM_PRES BOM_TNUM BOM_CI BOM_RMW BOM_R34_NE BOM_R34_SE BOM_R34_SW BOM_R34_NW BOM_R50_NE BOM_R50_SE BOM_R50_SW BOM_R50_NW BOM_R64_NE BOM_R64_SE BOM_R64_SW BOM_R64_NW BOM_ROCI BOM_POCI BOM_EYE BOM_POS_METHOD BOM_PRES_METHOD NADI_LAT NADI_LON NADI_CAT NADI_WIND NADI_PRES WELLINGTON_LAT WELLINGTON_LON WELLINGTON_WIND WELLINGTON_PRES DS824_LAT DS824_LON DS824_STAGE DS824_WIND DS824_PRES TD9636_LAT TD9636_LON TD9636_STAGE TD9636_WIND TD9636_PRES TD9635_LAT TD9635_LON TD9635_WIND TD9635_PRES TD9635_ROCI NEUMANN_LAT NEUMANN_LON NEUMANN_CLASS NEUMANN_WIND NEUMANN_PRES MLC_LAT MLC_LON MLC_CLASS MLC_WIND MLC_PRES USA_GUST BOM_GUST BOM_GUST_PER REUNION_GUST REUNION_GUST_PER USA_SEAHGT USA_SEARAD_NE USA_SEARAD_SE USA_SEARAD_SW USA_SEARAD_NW STORM_SPEED STORM_DIR
1989126S13178 1989 37 SP MM ERNIE 1989-05-06 00:00:00 TS -12.9000 177.800 main 422 422 O_________O_O_ jtwc_sh SH281989 -12.9000 177.800 20 -1 -12.9000 177.800 1 20 -12.9000 177.800 TC 20 16 269
1989126S13178 1989 37 SP MM ERNIE 1989-05-06 03:00:00 TS -12.9099 177.005 main 454 454 P_________P_P_ SH281989 -12.8806 176.985 20 -1 -12.9685 177.045 1 20 -12.8806 176.985 TC 20 15 269
1989126S13178 1989 37 SP MM ERNIE 1989-05-06 06:00:00 TS -12.9396 176.227 main 492 487 O_________P_O_ jtwc_sh SH281989 -12.9000 176.200 20 -1 -13.0188 176.281 1 20 -12.9000 176.200 TC 20 15 267
1989126S13178 1989 37 SP MM ERNIE 1989-05-06 09:00:00 TS -12.9930 175.473 main 524 524 P_________P_P_ SH281989 -12.9721 175.458 20 -1 -13.0347 175.502 1 20 -12.9721 175.458 TC 20 14 269
1989126S13178 1989 37 SP MM ERNIE 1989-05-06 12:00:00 TS -12.9538 174.808 30 997 wellington main 574 574 O_______O_O_O_ jtwc_sh SH281989 -13.0000 174.700 20 -1 -12.4000 176.100 30 997 -13.0000 174.700 1 20 -13.0000 174.700 TC 20 14 277
1989126S13178 1989 37 SP MM ERNIE 1989-05-06 15:00:00 TS -12.8162 174.044 main 646 646 P_______P_P_P_ SH281989 -12.8724 173.857 22 -1 -12.4122 175.135 30 997 -12.9057 173.872 1 21 -12.8724 173.857 TC 22 16 281
1989126S13178 1989 37 SP MM ERNIE 1989-05-06 18:00:00 TS -12.6593 173.209 30 997 wellington main 707 637 O_______O_P_O_ jtwc_sh SH281989 -12.7000 173.000 25 -1 -12.4000 174.000 30 997 -12.7723 173.034 1 22 -12.7000 173.000 TC 25 17 279
1989126S13178 1989 37 SP MM ERNIE 1989-05-06 21:00:00 TS -12.5371 172.302 main 627 542 P_______P_P_P_ SH281989 -12.5848 172.185 25 -1 -12.3511 172.632 30 997 -12.6276 172.204 1 23 -12.5848 172.185 TC 25 18 277
1989126S13178 1989 37 SP MM ERNIE 1989-05-07 00:00:00 TS -12.4500 171.400 30 997 wellington main 548 485 O_______O_O_O_ jtwc_sh SH281989 -12.5000 171.400 25 -1 -12.3000 171.400 30 997 -12.5000 171.400 1 25 -12.5000 171.400 TC 25 16 275
1989126S13178 1989 37 SP MM ERNIE 1989-05-07 03:00:00 TS -12.3999 170.648 main 477 427 P_______P_P_P_ SH281989 -12.4423 170.635 27 -1 -12.2914 170.695 30 997 -12.4238 170.626 1 26 -12.4423 170.635 TC 27 14 273
1989126S13178 1989 37 SP MM ERNIE 1989-05-07 06:00:00 TS -12.3673 169.971 30 997 wellington main 427 384 O_______O_P_O_ jtwc_sh SH281989 -12.4000 169.900 30 -1 -12.3000 170.200 30 997 -12.3693 169.883 1 27 -12.4000 169.900 TC 30 13 273
1989126S13178 1989 37 SP MM ERNIE 1989-05-07 09:00:00 TS -12.3249 169.286 main 384 348 P_______P_P_P_ SH281989 -12.3349 169.177 30 -1 -12.2997 169.615 30 997 -12.3302 169.173 1 28 -12.3349 169.177 TC 30 13 273
1989126S13178 1989 37 SP MM ERNIE 1989-05-07 12:00:00 TS -12.3000 168.625 30 997 wellington main 343 308 O_______O_O_O_ jtwc_sh SH281989 -12.3000 168.500 30 -1 -12.3000 169.000 30 997 -12.3000 168.500 1 30 -12.3000 168.500 TC 30 13 270
1989126S13178 1989 37 SP MM ERNIE 1989-05-07 15:00:00 TS -12.3244 167.986 main 308 282 P_______P_P_P_ SH281989 -12.3573 167.885 30 -1 -12.3000 168.309 30 997 -12.2832 167.865 1 31 -12.3573 167.885 TC 30 12 268
1989126S13178 1989 37 SP MM ERNIE 1989-05-07 18:00:00 TS -12.3429 167.356 main 282 269 O_______P_P_O_ jtwc_sh SH281989 -12.4000 167.300 30 -1 -12.3000 167.561 30 997 -12.2715 167.263 1 32 -12.4000 167.300 TC 30 12 271
1989126S13178 1989 37 SP MM ERNIE 1989-05-07 21:00:00 TS -12.3022 166.716 main 268 268 P_______P_P_P_ SH281989 -12.3299 166.700 32 -1 -12.2999 166.783 30 997 -12.2490 166.680 1 33 -12.3299 166.700 TC 32 13 275
1989126S13178 1989 37 SP MM ERNIE 1989-05-08 00:00:00 TS -12.2250 166.075 30 997 wellington main 285 285 O_______O_O_O_ jtwc_sh SH281989 -12.2000 166.100 35 0 -12.3000 166.000 30 997 -12.2000 166.100 2 35 -12.2000 166.100 TC 35 13 279
1989126S13178 1989 37 SP MM ERNIE 1989-05-08 03:00:00 TS -12.1107 165.434 main 318 304 P_______P_P_P_ SH281989 -12.0499 165.500 35 0 -12.2886 165.239 30 997 -12.0546 165.499 2 33 -12.0499 165.500 TC 35 13 281
1989126S13178 1989 37 SP MM ERNIE 1989-05-08 06:00:00 TS -11.9922 164.794 main 304 241 O_______P_P_O_ jtwc_sh SH281989 -11.9000 164.900 35 0 -12.2791 164.479 30 997 -11.8895 164.899 2 32 -11.9000 164.900 TC 35 13 280
1989126S13178 1989 37 SP MM ERNIE 1989-05-08 09:00:00 TS -11.8898 164.161 main 241 180 P_______P_P_P_ SH281989 -11.7623 164.307 32 -1 -12.2801 163.730 30 997 -11.7546 164.299 2 31 -11.7623 164.307 TC 32 13 277
1989126S13178 1989 37 SP MM ERNIE 1989-05-08 12:00:00 TS -11.8500 163.525 30 997 wellington main 172 139 O_______O_O_O_ jtwc_sh SH281989 -11.7000 163.700 30 -1 -12.3000 163.000 30 997 -11.7000 163.700 1 30 -11.7000 163.700 TC 30 13 269
1989126S13178 1989 37 SP MM ERNIE 1989-05-08 15:00:00 TS -11.9101 162.872 main 139 130 P_______P_P_P_ SH281989 -11.7475 163.043 30 -1 -12.3448 162.295 30 997 -11.8004 163.109 1 30 -11.7475 163.043 TC 30 13 261
1989126S13178 1989 37 SP MM ERNIE 1989-05-08 18:00:00 TS -12.0455 162.229 30 997 wellington main 134 134 O_______O_P_O_ jtwc_sh SH281989 -11.9000 162.400 30 -1 -12.4000 161.600 30 997 -11.9818 162.516 1 30 -11.9000 162.400 TC 30 13 255
1989126S13178 1989 37 SP MM ERNIE 1989-05-08 21:00:00 TS -12.2367 161.623 main 158 158 P_______P_P_P_ SH281989 -12.1498 161.843 30 -1 -12.4499 160.892 30 997 -12.1973 161.915 1 30 -12.1498 161.843 TC 30 12 252
1989126S13178 1989 37 SP MM ERNIE 1989-05-09 00:00:00 TS -12.4250 161.025 30 997 wellington main 199 199 O_______O_O_O_ jtwc_sh SH281989 -12.4000 161.300 30 -1 -12.5000 160.200 30 997 -12.4000 161.300 1 30 -12.4000 161.300 TC 30 12 256
1989126S13178 1989 37 SP MM ERNIE 1989-05-09 03:00:00 TS -12.5348 160.417 main 243 243 P_______P_P_P_ SH281989 -12.5223 160.722 30 -1 -12.5573 159.535 30 997 -12.5371 160.689 1 28 -12.5223 160.722 TC 30 12 261
1989126S13178 1989 37 SP EA ERNIE 1989-05-09 06:00:00 TS -12.6128 159.790 main 290 290 O_______O_P_O_ jtwc_sh SH281989 -12.6000 160.100 30 -1 -12.6000 158.900 30 997 -12.6514 160.060 1 27 -12.6000 160.100 TC 30 13 263
1989126S13178 1989 37 SP EA ERNIE 1989-05-09 09:00:00 TS -12.6942 159.142 main 333 333 P_______P_P_P_ SH281989 -12.7148 159.430 27 -1 -12.6072 158.307 30 997 -12.7400 159.401 1 26 -12.7148 159.430 TC 27 13 264
1989126S13178 1989 37 SP EA ERNIE 1989-05-09 12:00:00 TS -12.7500 158.450 main 354 354 O_______O_O_O_ jtwc_sh SH281989 -12.8000 158.700 25 -1 -12.6000 157.700 30 997 -12.8000 158.700 1 25 -12.8000 158.700 TC 25 14 267
1989126S13178 1989 37 SP EA ERNIE 1989-05-09 15:00:00 TS -12.7677 157.692 main 406 406 P_______P_P_P_ SH281989 -12.8149 157.915 25 -1 -12.6000 157.008 30 997 -12.8411 157.931 1 25 -12.8149 157.915 TC 25 15 269
1989126S13178 1989 37 SP EA ERNIE 1989-05-09 18:00:00 TS -12.7632 156.906 main 461 461 O_______O_P_O_ jtwc_sh SH281989 -12.8000 157.100 25 -1 -12.6000 156.300 30 997 -12.8527 157.122 1 25 -12.8000 157.100 TC 25 16 271
1989126S13178 1989 37 SP EA ERNIE 1989-05-09 21:00:00 TS -12.7517 156.079 25 1005 bom main 505 505 P_____O_P_P_P_ SH281989 -12.8073 156.300 25 -1 -12.6000 155.200 20 25 1005 2.00000 1012 3 9 -12.5923 155.635 32 996 -12.8379 156.303 1 25 -12.8073 156.300 TC 25 45 45 16 269
1989126S13178 1989 37 SP EA ERNIE 1989-05-10 00:00:00 TS -12.8000 155.311 30 1004 bom main 544 491 O_____O_O_O_O_ jtwc_sh SH281989 -12.8000 155.500 25 -1 -13.2000 154.800 20 30 1004 2.00000 1012 3 7 -12.6000 155.000 35 995 -12.8000 155.500 1 25 -12.8000 155.500 TC 25 45 45 15 266
1989126S13178 1989 37 SP EA ERNIE 1989-05-10 03:00:00 TS -12.8483 154.542 main 481 424 P_____P_P_P_P_ SH281989 -12.7649 154.678 25 -1 -13.4763 154.187 20 32 1002 1012 -12.6499 154.378 37 992 -12.7425 154.701 1 25 -12.7649 154.678 TC 25 15 268
1989126S13178 1989 37 SP EA ERNIE 1989-05-10 06:00:00 TS -12.8530 153.806 35 1001 bom main 424 367 O_____O_O_P_O_ jtwc_sh SH281989 -12.7000 153.900 25 -1 -13.5000 153.500 21 35 1001 2.00000 79 79 161 1012 3 7 -12.7000 153.800 40 990 -12.6652 153.930 1 25 -12.7000 153.900 TC 25 49 49 13 272
1989126S13178 1989 37 SP EA ERNIE 1989-05-10 09:00:00 TS -12.7909 153.171 main 367 313 P_____P_P_P_P_ SH281989 -12.5998 153.212 25 -1 -13.4674 152.912 21 37 1000 94 94 174 1012 -12.7072 153.300 40 990 -12.5802 153.219 1 25 -12.5998 153.212 TC 25 12 277
1989126S13178 1989 37 SP EA ERNIE 1989-05-10 12:00:00 TS -12.7000 152.600 40 1000 bom main 313 271 O_____O_O_O_O_ jtwc_sh SH281989 -12.5000 152.600 25 -1 -13.3000 152.400 21 40 1000 2.00000 110 110 188 1012 3 7 -12.7000 152.800 40 990 -12.5000 152.600 1 25 -12.5000 152.600 TC 25 55 55 11 280
1989126S13178 1989 37 SP EA ERNIE 1989-05-10 15:00:00 TS -12.6035 152.048 main 265 234 P_____P_P_P_P_ SH281989 -12.4425 151.990 27 -1 -12.9997 152.000 21 40 1000 174 1012 -12.7150 152.208 40 990 -12.4177 152.054 1 25 -12.4425 151.990 TC 27 10 281
1989126S13178 1989 37 SP EA ERNIE 1989-05-10 18:00:00 TS -12.5093 151.561 40 1000 bom main 234 208 O_____O_O_P_O_ jtwc_sh SH281989 -12.4000 151.500 30 -1 -12.7000 151.600 30 40 1000 2.00000 161 1012 3 7 -12.7000 151.600 40 990 -12.3467 151.605 1 25 -12.4000 151.500 TC 30 55 55 9 282
1989126S13178 1989 37 SP EA ERNIE 1989-05-10 21:00:00 TS -12.4240 151.149 main 205 195 P_____P_P_P_P_ SH281989 -12.3273 151.183 27 -1 -12.5547 151.118 30 42 999 161 1012 -12.6080 151.011 37 992 -12.3024 151.254 1 25 -12.3273 151.183 TC 27 8 280
1989126S13178 1989 37 SP EA ERNIE 1989-05-11 00:00:00 TS -12.3800 150.800 45 998 bom main 195 190 O_____O_O_O_O_ jtwc_sh SH281989 -12.3000 151.000 25 -1 -12.5000 150.500 30 45 998 2.50000 161 1012 3 7 -12.5000 150.500 35 995 -12.3000 151.000 1 25 -12.3000 151.000 TC 25 64 64 7 271
1989126S13178 1989 37 SP EA ERNIE 1989-05-11 03:00:00 TS -12.4121 150.448 main 190 190 P_____P_P_P_P_ SH281989 -12.3775 150.870 27 -1 -12.5010 149.538 30 45 998 161 1012 -12.4357 150.130 -12.3687 150.832 1 26 -12.3775 150.870 TC 27 6 260
1989126S13178 1989 37 SP EA ERNIE 1989-05-11 06:00:00 TS -12.4798 150.210 45 998 bom main 201 201 O_____O_P_P_O_ jtwc_sh SH281989 -12.5000 150.800 30 -1 -12.5000 148.800 30 45 998 2.50000 161 1012 3 7 -12.4219 149.899 -12.4771 150.753 1 27 -12.5000 150.800 TC 30 64 64 3 247
1989126S13178 1989 37 SP EA ERNIE 1989-05-11 09:00:00 TS -12.5282 150.170 main 201 201 P_____P_P_P_P_ SH281989 -12.6150 150.742 30 -1 -12.3622 148.858 30 42 999 161 1012 -12.4516 149.785 -12.5969 150.722 1 28 -12.6150 150.742 TC 30 1 172
1989126S13178 1989 37 SP EA ERNIE 1989-05-11 12:00:00 TS -12.5835 150.214 40 1000 bom main 212 212 O_____O_P_O_O_ jtwc_sh SH281989 -12.7000 150.700 30 -1 -12.3000 149.200 30 40 1000 2.50000 161 1012 3 7 -12.5177 149.770 -12.7000 150.700 1 30 -12.7000 150.700 TC 30 55 55 1 168
1989126S13178 1989 37 SP EA ERNIE 1989-05-11 15:00:00 TS -12.6622 150.215 main 223 223 P_____P_P_P_P_ SH281989 -12.7075 150.657 30 -1 -12.5124 149.292 30 37 1001 147 1012 -12.6129 149.833 -12.7709 150.633 1 30 -12.7075 150.657 TC 30 2 174
1989126S13178 1989 37 SP EA ERNIE 1989-05-11 18:00:00 TS -12.7505 150.238 35 1003 bom main 235 235 O_____O_P_P_O_ jtwc_sh SH281989 -12.7000 150.600 30 -1 -12.8000 149.400 30 35 1003 2.50000 134 1012 3 7 -12.7299 149.956 -12.8175 150.565 1 30 -12.7000 150.600 TC 30 49 49 2 165
1989126S13178 1989 37 SP EA ERNIE 1989-05-11 21:00:00 TS -12.8530 150.278 main 246 246 P_____P_P_P_P_ SH281989 -12.7650 150.508 30 -1 -13.0476 149.687 30 35 1003 120 1012 -12.8614 150.118 -12.8303 150.489 1 30 -12.7650 150.508 TC 30 1 164
1989126S13178 1989 37 SP EA ERNIE 1989-05-12 00:00:00 TS -12.8824 150.276 35 1003 bom main 246 223 O_____O_O_O_O_ jtwc_sh SH281989 -12.8000 150.400 30 -1 -13.1000 149.900 21 35 1003 2.50000 55 55 107 1012 3 7 -13.0000 150.300 30 997 -12.8000 150.400 1 30 -12.8000 150.400 TC 30 49 49 2 329
1989126S13178 1989 37 SP EA ERNIE 1989-05-12 03:00:00 TS -12.7220 150.198 main 223 201 P_____P___P_P_ SH281989 -12.7300 150.307 30 -1 -12.7224 149.847 21 35 1003 55 55 107 1012 -12.7057 150.330 1 28 -12.7300 150.307 TC 30 4 333
1989126S13178 1989 37 SP EA ERNIE 1989-05-12 06:00:00 TS -12.5326 150.091 35 1003 bom main 201 191 O_____O___P_O_ jtwc_sh SH281989 -12.6000 150.200 30 -1 -12.3000 149.600 21 35 1003 2.50000 55 55 107 1012 3 7 -12.5722 150.240 1 27 -12.6000 150.200 TC 30 49 49 4 324
1989126S13178 1989 37 SP EA ERNIE 1989-05-12 09:00:00 TS -12.4068 149.966 main 191 182 P_____P___P_P_ SH281989 -12.4500 150.080 27 -1 -12.1927 149.230 21 27 1004 161 1012 -12.4275 150.105 1 26 -12.4500 150.080 TC 27 4 311
1989126S13178 1989 37 SP EA ERNIE 1989-05-12 12:00:00 TS -12.3000 149.815 20 1005 bom main 184 176 O_____O___O_O_ jtwc_sh SH281989 -12.3000 149.900 25 -1 -12.3000 148.800 20 20 1005 2.00000 215 1012 3 7 -12.3000 149.900 1 25 -12.3000 149.900 TC 25 45 45 4 304
1989126S13178 1989 37 SP EA ERNIE 1989-05-12 15:00:00 TS -12.1887 149.633 main 180 173 P_________P_P_ SH281989 -12.1774 149.645 25 -1 20 -12.2111 149.608 1 25 -12.1774 149.645 TC 25 6 289
1989126S13178 1989 37 SP EA ERNIE 1989-05-12 18:00:00 TS -12.1186 149.282 main 180 180 O_________P_O_ jtwc_sh SH281989 -12.1000 149.300 25 -1 -12.1558 149.245 1 25 -12.1000 149.300 TC 25 8 277
1989126S13178 1989 37 SP EA ERNIE 1989-05-12 21:00:00 TS -12.0960 148.860 main 200 200 P_________P_P_ SH281989 -12.0827 148.873 25 -1 -12.1226 148.834 1 25 -12.0827 148.873 TC 25 9 271
1989126S13178 1989 37 SP EA ERNIE 1989-05-13 00:00:00 TS -12.1000 148.400 main 211 O_________O_O_ jtwc_sh SH281989 -12.1000 148.400 25 -1 -12.1000 148.400 1 25 -12.1000 148.400 TC 25 9 269

Digital Typhoon Data and Search

About IBTrACS Database

This database is a web-friendly format of International Best Track Archive for Climate Stewardship (IBTrACS), a global best track data archive curated by NOAA dating back to 1842.

Updated: 2021-10-21